Time;durP1;ratioP1;P1;durP2;ratioP2;P2;SDS_P1;SDS_P2;PMS_P1;PMS_P2;Temp;Humidity;BMP_temperature;BMP_pressure;BME280_temperature;BME280_humidity;BME280_pressure;Samples;Min_cycle;Max_cycle;Signal;HPM_P1;HPM_P2
2022/10/01 00:02:28;;;;;;;10.73;6.15;;;;;;;;;;6174821;28;20050;-83
2022/10/01 00:05:30;;;;;;;11.30;5.97;;;;;;;;;;6174637;28;20043;-84
2022/10/01 00:08:32;;;;;;;9.38;5.72;;;;;;;;;;6174144;28;20056;-84
2022/10/01 00:11:33;;;;;;;7.68;5.60;;;;;;;;;;6177348;28;20058;-82
2022/10/01 00:14:37;;;;;;;7.70;5.67;;;;;;;;;;6184178;28;20053;-84
2022/10/01 00:17:42;;;;;;;10.13;5.97;;;;;;;;;;6183356;28;20505;-84
2022/10/01 00:20:45;;;;;;;8.80;5.32;;;;;;;;;;6173537;28;20585;-83
2022/10/01 00:23:52;;;;;;;9.48;5.05;;;;;;;;;;6186150;28;20046;-85
2022/10/01 00:26:53;;;;;;;7.25;4.57;;;;;;;;;;6192107;28;20542;-84
2022/10/01 00:29:55;;;;;;;8.15;4.72;;;;;;;;;;6186878;28;20053;-85
2022/10/01 00:32:57;;;;;;;8.38;4.63;;;;;;;;;;6186538;28;20125;-84
2022/10/01 00:35:58;;;;;;;8.20;5.20;;;;;;;;;;6161795;28;20042;-83
2022/10/01 00:39:00;;;;;;;8.43;5.40;;;;;;;;;;6155408;28;20296;-83
2022/10/01 00:42:15;;;;;;;9.25;5.45;;;;;;;;;;6188677;28;20109;-84
2022/10/01 00:45:17;;;;;;;7.22;5.07;;;;;;;;;;6166981;28;20132;-83
2022/10/01 00:48:21;;;;;;;7.80;5.20;;;;;;;;;;6172530;28;20074;-84
2022/10/01 00:51:28;;;;;;;8.10;5.50;;;;;;;;;;6169048;28;20042;-84
2022/10/01 00:54:36;;;;;;;8.57;5.55;;;;;;;;;;6186014;28;20526;-84
2022/10/01 00:57:39;;;;;;;13.45;5.57;;;;;;;;;;6171474;28;20074;-84
2022/10/01 01:00:41;;;;;;;6.40;4.60;;;;;;;;;;6181683;28;20054;-83
2022/10/01 01:03:43;;;;;;;9.07;4.83;;;;;;;;;;6169928;28;20052;-83
2022/10/01 01:06:56;;;;;;;8.68;4.57;;;;;;;;;;6176666;28;22244;-84
2022/10/01 01:10:00;;;;;;;8.43;5.10;;;;;;;;;;6196757;28;20043;-84
2022/10/01 01:13:20;;;;;;;11.35;5.57;;;;;;;;;;6183871;28;20169;-83
2022/10/01 01:16:32;;;;;;;7.00;5.50;;;;;;;;;;6174521;28;20042;-83
2022/10/01 01:19:37;;;;;;;9.40;5.10;;;;;;;;;;6175679;28;20083;-83
2022/10/01 01:22:49;;;;;;;7.90;4.78;;;;;;;;;;6188616;28;20105;-84
2022/10/01 01:25:56;;;;;;;7.05;5.13;;;;;;;;;;6192721;28;20050;-85
2022/10/01 01:29:09;;;;;;;6.65;3.97;;;;;;;;;;6195151;28;20114;-84
2022/10/01 01:32:18;;;;;;;8.00;4.80;;;;;;;;;;6192864;28;20058;-84
2022/10/01 01:35:26;;;;;;;7.63;5.13;;;;;;;;;;6176011;28;21278;-84
2022/10/01 01:38:32;;;;;;;8.55;4.50;;;;;;;;;;6191374;28;20043;-84
2022/10/01 01:41:37;;;;;;;8.27;4.50;;;;;;;;;;6172844;28;20057;-84
2022/10/01 01:44:44;;;;;;;7.72;4.45;;;;;;;;;;6175736;28;20501;-83
2022/10/01 01:47:47;;;;;;;6.13;4.30;;;;;;;;;;6174408;28;20045;-83
2022/10/01 01:51:34;;;;;;;7.18;4.97;;;;;;;;;;6178957;28;20050;-84
2022/10/01 01:54:37;;;;;;;8.05;4.47;;;;;;;;;;6170767;28;20072;-83
2022/10/01 01:57:41;;;;;;;6.10;4.03;;;;;;;;;;6191129;28;20086;-83
2022/10/01 02:00:43;;;;;;;10.68;5.32;;;;;;;;;;6193348;28;20132;-84
2022/10/01 02:03:45;;;;;;;7.13;5.10;;;;;;;;;;6180929;28;20054;-83
2022/10/01 02:07:07;;;;;;;7.07;4.53;;;;;;;;;;6183480;28;20097;-83
2022/10/01 02:10:21;;;;;;;8.30;4.53;;;;;;;;;;6165126;28;20054;-83
2022/10/01 02:14:00;;;;;;;6.68;4.53;;;;;;;;;;6160898;28;20070;-85
2022/10/01 02:17:19;;;;;;;6.93;4.07;;;;;;;;;;6167954;28;20057;-84
2022/10/01 02:20:34;;;;;;;7.53;4.22;;;;;;;;;;6185669;28;20042;-84
2022/10/01 02:23:48;;;;;;;7.30;4.10;;;;;;;;;;6189020;28;20050;-83
2022/10/01 02:26:52;;;;;;;9.07;4.03;;;;;;;;;;6167535;28;20039;-83
2022/10/01 02:29:57;;;;;;;6.15;4.10;;;;;;;;;;6174540;28;20056;-83
2022/10/01 02:33:02;;;;;;;10.15;4.32;;;;;;;;;;6173686;28;20246;-84
2022/10/01 02:36:08;;;;;;;8.68;4.32;;;;;;;;;;6171764;28;20053;-84
2022/10/01 02:39:13;;;;;;;6.72;4.00;;;;;;;;;;6191237;28;20564;-83
2022/10/01 02:42:15;;;;;;;6.97;3.88;;;;;;;;;;6189590;28;20089;-84
2022/10/01 02:45:24;;;;;;;8.10;4.30;;;;;;;;;;6146387;28;20129;-82
2022/10/01 02:48:26;;;;;;;7.10;4.38;;;;;;;;;;6169637;28;20204;-83
2022/10/01 02:51:58;;;;;;;10.48;4.97;;;;;;;;;;6172367;28;20048;-83
2022/10/01 02:55:06;;;;;;;6.72;4.78;;;;;;;;;;6191627;28;20133;-84
2022/10/01 02:58:08;;;;;;;5.40;3.80;;;;;;;;;;6164491;28;20137;-83
2022/10/01 03:01:09;;;;;;;5.93;4.40;;;;;;;;;;6170737;28;20042;-83
2022/10/01 03:04:12;;;;;;;5.82;3.90;;;;;;;;;;6188555;28;20046;-85
2022/10/01 03:07:14;;;;;;;7.60;3.80;;;;;;;;;;6172763;28;20043;-84
2022/10/01 03:10:16;;;;;;;5.72;3.72;;;;;;;;;;6169550;28;20133;-84
2022/10/01 03:13:20;;;;;;;5.75;4.15;;;;;;;;;;6166111;28;20186;-84
2022/10/01 03:16:22;;;;;;;5.25;3.58;;;;;;;;;;6152062;28;20128;-83
2022/10/01 03:19:24;;;;;;;4.78;4.07;;;;;;;;;;6169316;28;20046;-84
2022/10/01 03:22:26;;;;;;;4.47;3.70;;;;;;;;;;6169281;28;20079;-84
2022/10/01 03:25:28;;;;;;;5.20;4.00;;;;;;;;;;6179730;28;20097;-83
2022/10/01 03:28:29;;;;;;;6.18;4.50;;;;;;;;;;6173187;28;20065;-83
2022/10/01 03:31:31;;;;;;;8.68;4.35;;;;;;;;;;6188958;28;20050;-84
2022/10/01 03:34:34;;;;;;;5.82;4.22;;;;;;;;;;6172386;28;20053;-82
2022/10/01 03:37:35;;;;;;;7.38;4.43;;;;;;;;;;6154440;28;20049;-83
2022/10/01 03:40:37;;;;;;;5.57;3.90;;;;;;;;;;6169764;28;20149;-84
2022/10/01 03:43:39;;;;;;;5.07;4.00;;;;;;;;;;6188717;28;20046;-83
2022/10/01 03:46:41;;;;;;;5.10;3.42;;;;;;;;;;6169613;28;20050;-83
2022/10/01 03:49:42;;;;;;;6.35;4.18;;;;;;;;;;6189356;28;20046;-84
2022/10/01 03:52:44;;;;;;;4.93;3.90;;;;;;;;;;6167224;28;20169;-82
2022/10/01 03:55:46;;;;;;;7.22;4.18;;;;;;;;;;6182401;28;20108;-81
2022/10/01 03:58:48;;;;;;;5.72;4.35;;;;;;;;;;6168375;28;20104;-81
2022/10/01 04:01:50;;;;;;;6.97;4.00;;;;;;;;;;6180903;28;20046;-81
2022/10/01 04:04:52;;;;;;;6.50;4.35;;;;;;;;;;6178978;28;20050;-81
2022/10/01 04:07:54;;;;;;;5.55;4.18;;;;;;;;;;6153194;28;20177;-81
2022/10/01 04:10:55;;;;;;;7.95;4.20;;;;;;;;;;6167146;28;20428;-81
2022/10/01 04:13:57;;;;;;;6.25;4.05;;;;;;;;;;6164939;28;20038;-81
2022/10/01 04:16:59;;;;;;;6.45;4.47;;;;;;;;;;6150726;28;20182;-81
2022/10/01 04:20:01;;;;;;;7.30;4.38;;;;;;;;;;6177658;28;20339;-82
2022/10/01 04:23:05;;;;;;;5.93;4.25;;;;;;;;;;6183365;28;20050;-83
2022/10/01 04:26:07;;;;;;;8.50;4.82;;;;;;;;;;6162377;28;20197;-81
2022/10/01 04:29:09;;;;;;;8.13;4.88;;;;;;;;;;6174341;28;20118;-81
2022/10/01 04:32:10;;;;;;;6.03;4.25;;;;;;;;;;6165283;28;20056;-81
2022/10/01 04:35:12;;;;;;;5.85;4.43;;;;;;;;;;6176897;28;20104;-81
2022/10/01 04:38:15;;;;;;;6.97;5.00;;;;;;;;;;6175185;28;20085;-83
2022/10/01 04:41:17;;;;;;;6.80;4.82;;;;;;;;;;6166584;28;20047;-81
2022/10/01 04:44:19;;;;;;;8.45;5.53;;;;;;;;;;6177165;28;20073;-81
2022/10/01 04:47:21;;;;;;;7.68;5.25;;;;;;;;;;6157439;28;20066;-82
2022/10/01 04:50:25;;;;;;;9.10;5.15;;;;;;;;;;6163509;28;20061;-81
2022/10/01 04:53:26;;;;;;;7.07;4.60;;;;;;;;;;6142334;28;20517;-82
2022/10/01 04:56:28;;;;;;;7.68;5.50;;;;;;;;;;6178749;28;20137;-82
2022/10/01 04:59:30;;;;;;;6.95;4.72;;;;;;;;;;6163874;28;20609;-82
2022/10/01 05:02:33;;;;;;;8.98;4.65;;;;;;;;;;6175428;28;20054;-82
2022/10/01 05:05:36;;;;;;;5.70;4.68;;;;;;;;;;6159800;28;20058;-81
2022/10/01 05:08:37;;;;;;;6.45;4.32;;;;;;;;;;6177066;28;20196;-82
2022/10/01 05:11:40;;;;;;;6.82;4.80;;;;;;;;;;6176109;28;20085;-81
2022/10/01 05:14:42;;;;;;;8.50;4.95;;;;;;;;;;6168142;28;20046;-82
2022/10/01 05:17:45;;;;;;;7.65;4.60;;;;;;;;;;6181540;28;20076;-82
2022/10/01 05:20:48;;;;;;;6.55;5.10;;;;;;;;;;6166334;28;20049;-83
2022/10/01 05:23:50;;;;;;;6.53;4.70;;;;;;;;;;6181594;28;20421;-83
2022/10/01 05:26:53;;;;;;;7.53;4.70;;;;;;;;;;6182606;28;20050;-82
2022/10/01 05:29:55;;;;;;;7.25;4.72;;;;;;;;;;6168716;28;20137;-82
2022/10/01 05:33:00;;;;;;;7.55;5.00;;;;;;;;;;6173347;28;20054;-82
2022/10/01 05:36:05;;;;;;;8.30;4.88;;;;;;;;;;6181156;28;20506;-82
2022/10/01 05:39:07;;;;;;;6.63;4.28;;;;;;;;;;6165662;28;20053;-82
2022/10/01 05:42:08;;;;;;;6.00;4.35;;;;;;;;;;6184398;28;20501;-83
2022/10/01 05:45:10;;;;;;;5.45;4.32;;;;;;;;;;6168167;28;20775;-82
2022/10/01 05:48:12;;;;;;;9.00;5.22;;;;;;;;;;6171574;28;20100;-83
2022/10/01 05:51:14;;;;;;;6.78;4.70;;;;;;;;;;6172328;28;20408;-84
2022/10/01 05:54:19;;;;;;;6.57;4.45;;;;;;;;;;6174265;28;21278;-83
2022/10/01 05:57:21;;;;;;;5.10;4.45;;;;;;;;;;6191926;28;20425;-82
2022/10/01 06:00:23;;;;;;;6.78;4.03;;;;;;;;;;6165519;28;20058;-82
2022/10/01 06:03:27;;;;;;;5.32;4.05;;;;;;;;;;6194795;28;20066;-82
2022/10/01 06:06:29;;;;;;;6.10;4.53;;;;;;;;;;6185620;28;20517;-82
2022/10/01 06:09:31;;;;;;;5.80;4.22;;;;;;;;;;6173685;28;20050;-83
2022/10/01 06:12:33;;;;;;;5.85;4.43;;;;;;;;;;6156602;28;20065;-83
2022/10/01 06:15:37;;;;;;;7.20;4.40;;;;;;;;;;6175047;28;20061;-84
2022/10/01 06:18:40;;;;;;;5.45;4.13;;;;;;;;;;6167994;28;20077;-84
2022/10/01 06:21:42;;;;;;;;;;;;;;;;;;6155685;28;20185;-85
2022/10/01 06:24:44;;;;;;;5.63;3.28;;;;;;;;;;6165950;28;19972;-85
2022/10/01 06:27:56;;;;;;;5.68;3.63;;;;;;;;;;6177902;28;20046;-84
2022/10/01 06:31:02;;;;;;;5.30;3.23;;;;;;;;;;6169590;28;20602;-84
2022/10/01 06:34:04;;;;;;;4.90;3.58;;;;;;;;;;6170780;28;20465;-84
2022/10/01 06:37:06;;;;;;;5.15;3.17;;;;;;;;;;6176684;28;20494;-85
2022/10/01 06:40:08;;;;;;;5.47;3.42;;;;;;;;;;6173717;28;20085;-84
2022/10/01 06:43:09;;;;;;;4.32;3.10;;;;;;;;;;6168989;28;20186;-85
2022/10/01 06:46:11;;;;;;;13.00;3.25;;;;;;;;;;6170800;28;20402;-87
2022/10/01 06:49:13;;;;;;;4.13;2.67;;;;;;;;;;6170512;28;20421;-87
2022/10/01 06:55:36;;;;;;;4.07;3.67;;;;;;;;;;6191161;28;20432;-86
2022/10/01 06:58:37;;;;;;;4.00;2.60;;;;;;;;;;6168516;28;20131;-86
2022/10/01 07:01:39;;;;;;;4.95;2.85;;;;;;;;;;6161066;28;20211;-86
2022/10/01 07:04:41;;;;;;;3.65;2.80;;;;;;;;;;6187539;28;20094;-86
2022/10/01 07:07:43;;;;;;;5.30;3.85;;;;;;;;;;6144039;28;20217;-86
2022/10/01 07:10:45;;;;;;;3.90;2.80;;;;;;;;;;6163001;28;20062;-86
2022/10/01 07:13:49;;;;;;;3.63;2.95;;;;;;;;;;6184700;28;20054;-86
2022/10/01 07:16:55;;;;;;;4.38;2.60;;;;;;;;;;6165601;28;20049;-86
2022/10/01 07:19:57;;;;;;;2.95;2.63;;;;;;;;;;6174439;28;20441;-88
2022/10/01 07:22:59;;;;;;;3.05;2.75;;;;;;;;;;6158124;28;20136;-86
2022/10/01 07:26:07;;;;;;;3.95;2.97;;;;;;;;;;6175507;28;20046;-87
2022/10/01 07:29:11;;;;;;;3.97;2.65;;;;;;;;;;6194356;28;20038;-85
2022/10/01 07:32:16;;;;;;;4.70;2.75;;;;;;;;;;6135167;28;20069;-86
2022/10/01 07:35:19;;;;;;;3.25;2.80;;;;;;;;;;6136670;28;20114;-87
2022/10/01 07:38:23;;;;;;;2.83;2.45;;;;;;;;;;6166337;28;20066;-86
2022/10/01 07:41:25;;;;;;;4.07;3.25;;;;;;;;;;6167960;28;20046;-85
2022/10/01 07:44:28;;;;;;;4.22;2.63;;;;;;;;;;6155073;28;20055;-84
2022/10/01 07:47:30;;;;;;;2.95;2.70;;;;;;;;;;6166570;28;20054;-85
2022/10/01 07:50:32;;;;;;;3.80;3.08;;;;;;;;;;6161835;28;20051;-88
2022/10/01 07:53:34;;;;;;;5.18;3.10;;;;;;;;;;6187581;28;20049;-85
2022/10/01 07:56:36;;;;;;;4.25;3.28;;;;;;;;;;6154983;28;22196;-85
2022/10/01 07:59:39;;;;;;;3.42;2.47;;;;;;;;;;6164211;28;20065;-85
2022/10/01 08:02:45;;;;;;;3.20;2.47;;;;;;;;;;6166107;28;20042;-86
2022/10/01 08:05:48;;;;;;;4.10;2.75;;;;;;;;;;6128039;28;20058;-86
2022/10/01 08:08:50;;;;;;;3.55;2.60;;;;;;;;;;6168292;28;20052;-86
2022/10/01 08:11:52;;;;;;;3.85;2.42;;;;;;;;;;6182757;28;20105;-87
2022/10/01 08:14:54;;;;;;;2.90;2.60;;;;;;;;;;6138237;28;20050;-86
2022/10/01 08:18:03;;;;;;;3.30;2.30;;;;;;;;;;6141936;28;20054;-86
2022/10/01 08:21:05;;;;;;;2.10;1.90;;;;;;;;;;6158720;28;20038;-85
2022/10/01 08:24:08;;;;;;;2.55;2.00;;;;;;;;;;6124743;28;20477;-86
2022/10/01 08:27:10;;;;;;;2.88;2.05;;;;;;;;;;6150510;28;20186;-86
2022/10/01 08:30:12;;;;;;;3.22;2.40;;;;;;;;;;6163206;28;20047;-85
2022/10/01 08:33:14;;;;;;;2.55;2.35;;;;;;;;;;6165460;28;21111;-83
2022/10/01 08:36:16;;;;;;;2.50;1.70;;;;;;;;;;6149366;28;20390;-82
2022/10/01 08:39:19;;;;;;;3.30;3.00;;;;;;;;;;6164834;28;20068;-83
2022/10/01 08:42:33;;;;;;;1.95;1.67;;;;;;;;;;6184982;28;20056;-83
2022/10/01 08:45:47;;;;;;;9.73;3.58;;;;;;;;;;6166236;28;20042;-83
2022/10/01 08:49:07;;;;;;;1.67;1.58;;;;;;;;;;6182312;28;20125;-83
2022/10/01 08:52:21;;;;;;;2.15;1.75;;;;;;;;;;6167372;28;20050;-83
2022/10/01 08:55:35;;;;;;;2.30;1.88;;;;;;;;;;6178048;28;20154;-83
2022/10/01 08:58:41;;;;;;;2.47;1.70;;;;;;;;;;6181772;28;20504;-82
2022/10/01 09:01:43;;;;;;;1.88;1.77;;;;;;;;;;6167858;28;20049;-83
2022/10/01 09:04:46;;;;;;;1.63;1.52;;;;;;;;;;6188466;28;20054;-84
2022/10/01 09:08:00;;;;;;;1.63;1.30;;;;;;;;;;6187666;28;20050;-84
2022/10/01 09:11:06;;;;;;;;;;;;;;;;;;6171374;28;20046;-83
2022/10/01 09:14:36;;;;;;;1.63;1.27;;;;;;;;;;6165266;28;19934;-83
2022/10/01 09:17:56;;;;;;;1.30;1.20;;;;;;;;;;6157441;28;20418;-85
2022/10/01 09:20:58;;;;;;;1.70;1.27;;;;;;;;;;6184673;28;20046;-86
2022/10/01 09:24:21;;;;;;;1.33;1.10;;;;;;;;;;6158172;28;20613;-88
2022/10/01 09:27:26;;;;;;;1.80;1.33;;;;;;;;;;6125220;28;20054;-87
2022/10/01 09:30:30;;;;;;;0.90;0.85;;;;;;;;;;6155246;28;20073;-84
2022/10/01 09:33:35;;;;;;;2.15;1.15;;;;;;;;;;6172169;28;20080;-85
2022/10/01 09:36:43;;;;;;;1.40;1.30;;;;;;;;;;6186762;28;20046;-84
2022/10/01 09:40:03;;;;;;;1.30;1.20;;;;;;;;;;6172945;28;20469;-85
2022/10/01 09:43:07;;;;;;;1.05;1.00;;;;;;;;;;6171886;28;20165;-82
2022/10/01 09:46:13;;;;;;;2.13;1.27;;;;;;;;;;6173708;28;20390;-83
2022/10/01 09:49:38;;;;;;;1.08;0.70;;;;;;;;;;6178194;28;20046;-83
2022/10/01 09:52:40;;;;;;;1.25;1.08;;;;;;;;;;6176023;28;20472;-83
2022/10/01 09:55:48;;;;;;;1.05;0.90;;;;;;;;;;6169992;28;20718;-82
2022/10/01 09:58:54;;;;;;;0.85;0.82;;;;;;;;;;6185639;28;20061;-83
2022/10/01 10:01:57;;;;;;;1.40;0.90;;;;;;;;;;6157595;28;20224;-83
2022/10/01 10:05:12;;;;;;;0.77;0.75;;;;;;;;;;6172778;28;20535;-85
2022/10/01 10:08:29;;;;;;;1.15;1.10;;;;;;;;;;6153342;28;20133;-87
2022/10/01 10:11:32;;;;;;;1.00;1.00;;;;;;;;;;6155273;28;20274;-83
2022/10/01 10:14:36;;;;;;;1.20;1.10;;;;;;;;;;6159614;28;20161;-83
2022/10/01 10:17:42;;;;;;;1.27;0.85;;;;;;;;;;6175620;28;20053;-83
2022/10/01 10:20:50;;;;;;;1.02;0.90;;;;;;;;;;6163220;28;20130;-83
2022/10/01 10:23:54;;;;;;;1.30;1.20;;;;;;;;;;6174985;28;20050;-83
2022/10/01 10:26:58;;;;;;;1.13;1.00;;;;;;;;;;6166046;28;20078;-83
2022/10/01 10:30:03;;;;;;;1.35;1.20;;;;;;;;;;6178119;28;20088;-83
2022/10/01 10:33:06;;;;;;;0.88;0.88;;;;;;;;;;6167178;28;20058;-83
2022/10/01 10:36:13;;;;;;;1.15;0.70;;;;;;;;;;6156783;28;20046;-82
2022/10/01 10:39:28;;;;;;;1.88;1.40;;;;;;;;;;6168432;28;20046;-83
2022/10/01 10:42:29;;;;;;;1.27;0.88;;;;;;;;;;6155005;28;20046;-82
2022/10/01 10:45:36;;;;;;;1.52;1.00;;;;;;;;;;6166246;28;20043;-82
2022/10/01 10:48:44;;;;;;;1.85;1.35;;;;;;;;;;6157358;28;20049;-82
2022/10/01 10:51:54;;;;;;;1.00;0.80;;;;;;;;;;6163168;28;20421;-83
2022/10/01 10:54:58;;;;;;;1.85;1.20;;;;;;;;;;6161479;28;20105;-82
2022/10/01 10:58:10;;;;;;;1.13;0.93;;;;;;;;;;6141433;28;20042;-83
2022/10/01 11:01:18;;;;;;;1.42;0.95;;;;;;;;;;6158312;28;20536;-84
2022/10/01 11:04:42;;;;;;;1.23;0.90;;;;;;;;;;6172370;28;20077;-82
2022/10/01 11:07:46;;;;;;;0.63;0.63;;;;;;;;;;6145889;28;20185;-84
2022/10/01 11:10:59;;;;;;;0.50;0.50;;;;;;;;;;6158416;28;20098;-84
2022/10/01 11:14:19;;;;;;;0.70;0.70;;;;;;;;;;6175259;28;20054;-82
2022/10/01 11:17:24;;;;;;;;;;;;;;;;;;6174639;28;21316;-84
2022/10/01 11:20:41;;;;;;;1.48;0.88;;;;;;;;;;6163527;28;19936;-83
2022/10/01 11:24:21;;;;;;;0.80;0.70;;;;;;;;;;6155661;28;20046;-83
2022/10/01 11:27:26;;;;;;;1.00;0.90;;;;;;;;;;6154189;28;20053;-82
2022/10/01 11:30:42;;;;;;;1.08;0.60;;;;;;;;;;6177561;28;20057;-83
2022/10/01 11:33:56;;;;;;;1.08;0.80;;;;;;;;;;6182191;28;20057;-83
2022/10/01 11:37:09;;;;;;;1.23;0.63;;;;;;;;;;6168496;28;20128;-83
2022/10/01 11:40:23;;;;;;;2.08;0.90;;;;;;;;;;6161714;28;20053;-82
2022/10/01 11:43:31;;;;;;;2.30;1.00;;;;;;;;;;6180437;28;20046;-83
2022/10/01 11:46:52;;;;;;;3.75;1.00;;;;;;;;;;6165269;28;20054;-82
2022/10/01 11:50:01;;;;;;;2.28;1.05;;;;;;;;;;6158549;28;20065;-83
2022/10/01 11:53:11;;;;;;;3.42;1.05;;;;;;;;;;6162238;28;20051;-83
2022/10/01 11:59:48;;;;;;;4.35;1.40;;;;;;;;;;6166034;28;20096;-86
2022/10/01 12:02:56;;;;;;;3.03;1.60;;;;;;;;;;6172735;28;20457;-84
2022/10/01 12:05:58;;;;;;;4.47;1.27;;;;;;;;;;6187413;28;20061;-86
2022/10/01 12:09:28;;;;;;;3.10;1.08;;;;;;;;;;6184123;28;20418;-85
2022/10/01 12:12:35;;;;;;;3.35;1.13;;;;;;;;;;6153023;28;20129;-84
2022/10/01 12:16:00;;;;;;;3.08;1.13;;;;;;;;;;6166624;28;20046;-85
2022/10/01 12:19:12;;;;;;;3.03;1.38;;;;;;;;;;6167788;28;20047;-84
2022/10/01 12:22:20;;;;;;;3.17;1.50;;;;;;;;;;6178539;28;20101;-85
2022/10/01 12:25:33;;;;;;;3.05;1.08;;;;;;;;;;6176713;28;20054;-84
2022/10/01 12:28:41;;;;;;;5.85;1.20;;;;;;;;;;6171433;28;20042;-84
2022/10/01 12:32:12;;;;;;;3.67;1.08;;;;;;;;;;6178025;28;20052;-84
2022/10/01 12:35:26;;;;;;;7.40;1.10;;;;;;;;;;6164122;28;20042;-85
2022/10/01 12:38:44;;;;;;;1.92;1.00;;;;;;;;;;6170725;28;20537;-86
2022/10/01 12:42:10;;;;;;;2.85;1.20;;;;;;;;;;6163100;28;20152;-85
2022/10/01 12:45:27;;;;;;;2.83;1.08;;;;;;;;;;6147509;28;20057;-85
2022/10/01 12:49:01;;;;;;;2.28;1.15;;;;;;;;;;6162289;28;20074;-85
2022/10/01 12:52:11;;;;;;;1.65;1.00;;;;;;;;;;6158630;28;20062;-85
2022/10/01 12:55:48;;;;;;;2.15;1.00;;;;;;;;;;6158108;28;20783;-84
2022/10/01 12:59:05;;;;;;;8.23;4.05;;;;;;;;;;6125343;28;20117;-87
2022/10/01 13:02:33;;;;;;;3.38;1.23;;;;;;;;;;6159815;28;20502;-86
2022/10/01 13:05:40;;;;;;;4.20;1.30;;;;;;;;;;6176009;28;20046;-85
2022/10/01 13:09:00;;;;;;;8.40;1.40;;;;;;;;;;6173227;28;20037;-87
2022/10/01 13:12:11;;;;;;;2.28;1.13;;;;;;;;;;6177370;28;20121;-85
2022/10/01 13:15:19;;;;;;;2.35;1.17;;;;;;;;;;6167037;28;20042;-86
2022/10/01 13:18:27;;;;;;;4.30;1.10;;;;;;;;;;6165120;28;20073;-86
2022/10/01 13:22:00;;;;;;;3.83;1.20;;;;;;;;;;6154265;28;20177;-85
2022/10/01 13:25:39;;;;;;;3.78;2.40;;;;;;;;;;6152709;28;20070;-85
2022/10/01 13:28:53;;;;;;;2.95;1.67;;;;;;;;;;6166878;28;20057;-87
2022/10/01 13:31:56;;;;;;;4.93;2.13;;;;;;;;;;6165474;28;20531;-85
2022/10/01 13:34:59;;;;;;;;;;;;;;;;;;6154431;28;20050;-85
2022/10/01 13:38:13;;;;;;;3.17;1.80;;;;;;;;;;6178428;28;19960;-85
2022/10/01 13:41:20;;;;;;;6.73;1.67;;;;;;;;;;6161144;28;20365;-85
2022/10/01 13:44:33;;;;;;;3.15;1.90;;;;;;;;;;6157767;28;20576;-87
2022/10/01 13:47:39;;;;;;;5.50;2.28;;;;;;;;;;6142789;28;20506;-86
2022/10/01 13:51:05;;;;;;;8.18;3.67;;;;;;;;;;6177864;28;20072;-86
2022/10/01 13:54:19;;;;;;;3.22;2.00;;;;;;;;;;6162376;28;20042;-85
2022/10/01 13:57:37;;;;;;;4.45;2.95;;;;;;;;;;6164479;28;20517;-86
2022/10/01 14:00:54;;;;;;;9.93;2.30;;;;;;;;;;6140930;28;20046;-85
2022/10/01 14:04:13;;;;;;;5.18;3.25;;;;;;;;;;6163457;28;20047;-86
2022/10/01 14:07:22;;;;;;;2.85;1.95;;;;;;;;;;6148648;28;20449;-86
2022/10/01 14:10:35;;;;;;;5.40;2.00;;;;;;;;;;6174482;28;20457;-87
2022/10/01 14:17:07;;;;;;;5.05;2.40;;;;;;;;;;6185617;28;20046;-86
2022/10/01 14:20:17;;;;;;;3.05;1.45;;;;;;;;;;6149724;28;20679;-86
2022/10/01 14:23:31;;;;;;;2.20;1.50;;;;;;;;;;6188470;28;20042;-85
2022/10/01 14:27:15;;;;;;;2.42;1.50;;;;;;;;;;6189006;28;20039;-86
2022/10/01 14:30:22;;;;;;;3.65;1.38;;;;;;;;;;6157586;28;20096;-85
2022/10/01 14:33:33;;;;;;;5.80;1.35;;;;;;;;;;6179624;28;20046;-87
2022/10/01 14:36:42;;;;;;;2.60;1.20;;;;;;;;;;6172519;28;20494;-86
2022/10/01 14:39:44;;;;;;;1.98;1.27;;;;;;;;;;6176491;28;20051;-86
2022/10/01 14:43:00;;;;;;;3.75;1.23;;;;;;;;;;6184964;28;20072;-85
2022/10/01 14:46:04;;;;;;;8.43;1.25;;;;;;;;;;6174102;28;20841;-85
2022/10/01 14:49:24;;;;;;;6.20;1.48;;;;;;;;;;6172208;28;20054;-85
2022/10/01 14:52:31;;;;;;;3.97;1.40;;;;;;;;;;6181043;28;20127;-85
2022/10/01 14:55:33;;;;;;;3.45;1.30;;;;;;;;;;6168061;28;20133;-85
2022/10/01 14:58:42;;;;;;;2.45;1.20;;;;;;;;;;6173821;28;20053;-85
2022/10/01 15:01:59;;;;;;;4.97;1.58;;;;;;;;;;6173510;28;20149;-84
2022/10/01 15:05:00;;;;;;;4.97;1.70;;;;;;;;;;6170739;28;20047;-86
2022/10/01 15:08:39;;;;;;;8.77;4.50;;;;;;;;;;6176036;28;20051;-86
2022/10/01 15:11:41;;;;;;;4.38;2.00;;;;;;;;;;6139184;28;20188;-85
2022/10/01 15:14:46;;;;;;;2.63;1.17;;;;;;;;;;6164145;28;20057;-85
2022/10/01 15:17:48;;;;;;;3.47;1.20;;;;;;;;;;6154555;28;20077;-85
2022/10/01 15:20:59;;;;;;;5.60;1.70;;;;;;;;;;6183514;28;20121;-86
2022/10/01 15:24:03;;;;;;;3.10;1.30;;;;;;;;;;6181207;28;20046;-85
2022/10/01 15:27:05;;;;;;;3.95;1.02;;;;;;;;;;6167846;28;20054;-85
2022/10/01 15:30:13;;;;;;;3.30;1.17;;;;;;;;;;6167591;28;20077;-85
2022/10/01 15:33:27;;;;;;;3.17;1.15;;;;;;;;;;6185758;28;20046;-85
2022/10/01 15:36:30;;;;;;;2.85;1.40;;;;;;;;;;6183049;28;20051;-86
2022/10/01 15:39:36;;;;;;;5.53;3.17;;;;;;;;;;6170182;28;20038;-85
2022/10/01 15:42:39;;;;;;;2.78;1.23;;;;;;;;;;6171192;28;20524;-85
2022/10/01 15:45:41;;;;;;;;;;;;;;;;;;6162873;28;20041;-86
2022/10/01 15:48:43;;;;;;;3.00;1.40;;;;;;;;;;6180595;28;20365;-85
2022/10/01 15:55:26;;;;;;;2.95;1.30;;;;;;;;;;6156043;28;20046;-85
2022/10/01 15:58:31;;;;;;;2.90;1.67;;;;;;;;;;6182378;28;20177;-85
2022/10/01 16:01:38;;;;;;;2.13;1.23;;;;;;;;;;6145712;28;20085;-86
2022/10/01 16:04:40;;;;;;;3.10;1.42;;;;;;;;;;6151296;28;20061;-85
2022/10/01 16:07:46;;;;;;;1.90;1.15;;;;;;;;;;6182179;28;20049;-85
2022/10/01 16:11:14;;;;;;;4.28;1.60;;;;;;;;;;6164324;28;20050;-86
2022/10/01 16:14:21;;;;;;;4.13;1.50;;;;;;;;;;6154523;28;20053;-86
2022/10/01 16:17:29;;;;;;;5.18;1.67;;;;;;;;;;6140796;28;20102;-87
2022/10/01 16:20:37;;;;;;;;;;;;;;;;;;6145042;28;20062;-86
2022/10/01 16:23:39;;;;;;;6.03;2.30;;;;;;;;;;6161180;28;19921;-85
2022/10/01 16:26:42;;;;;;;6.53;2.67;;;;;;;;;;6141499;28;21328;-85
2022/10/01 16:30:01;;;;;;;4.63;2.30;;;;;;;;;;6152846;28;20057;-85
2022/10/01 16:33:09;;;;;;;15.87;6.40;;;;;;;;;;6172507;28;20085;-85
2022/10/01 16:36:23;;;;;;;24.85;10.90;;;;;;;;;;6143506;28;20050;-85
2022/10/01 16:39:24;;;;;;;18.35;6.82;;;;;;;;;;6158825;28;20061;-88
2022/10/01 16:42:26;;;;;;;22.05;8.70;;;;;;;;;;6160581;28;20050;-85
2022/10/01 16:45:35;;;;;;;34.08;11.75;;;;;;;;;;6154516;28;20089;-85
2022/10/01 16:48:37;;;;;;;90.95;32.80;;;;;;;;;;6164729;28;20509;-87
2022/10/01 16:51:39;;;;;;;99.32;36.47;;;;;;;;;;6155829;28;20053;-85
2022/10/01 16:54:43;;;;;;;9.75;4.40;;;;;;;;;;6146536;28;20057;-85
2022/10/01 16:57:45;;;;;;;9.95;5.00;;;;;;;;;;6156861;28;20049;-83
2022/10/01 17:00:47;;;;;;;8.82;4.55;;;;;;;;;;6183037;28;20045;-83
2022/10/01 17:03:49;;;;;;;6.68;4.00;;;;;;;;;;6181236;28;20532;-83
2022/10/01 17:06:52;;;;;;;7.72;3.97;;;;;;;;;;6180013;28;20073;-83
2022/10/01 17:09:54;;;;;;;10.25;4.13;;;;;;;;;;6167085;28;20652;-83
2022/10/01 17:12:58;;;;;;;4.90;2.50;;;;;;;;;;6180103;28;20085;-83
2022/10/01 17:16:00;;;;;;;5.32;2.63;;;;;;;;;;6165070;28;20050;-83
2022/10/01 17:19:01;;;;;;;7.47;3.28;;;;;;;;;;6166534;28;20062;-83
2022/10/01 17:22:03;;;;;;;38.78;20.92;;;;;;;;;;6148585;28;20208;-85
2022/10/01 17:25:06;;;;;;;19.45;11.50;;;;;;;;;;6176463;28;20595;-84
2022/10/01 17:28:15;;;;;;;56.45;27.30;;;;;;;;;;6162217;28;20042;-84
2022/10/01 17:31:19;;;;;;;38.97;19.95;;;;;;;;;;6168791;28;20038;-86
2022/10/01 17:34:24;;;;;;;30.08;15.63;;;;;;;;;;6155836;28;20137;-85
2022/10/01 17:37:26;;;;;;;25.92;13.63;;;;;;;;;;6151715;28;20068;-84
2022/10/01 17:40:29;;;;;;;19.98;10.18;;;;;;;;;;6145838;28;20046;-84
2022/10/01 17:43:32;;;;;;;12.10;5.40;;;;;;;;;;6161732;28;20501;-85
2022/10/01 17:46:34;;;;;;;25.02;10.20;;;;;;;;;;6164625;28;20061;-84
2022/10/01 17:49:36;;;;;;;56.80;24.33;;;;;;;;;;6173379;28;20038;-85
2022/10/01 17:52:38;;;;;;;14.50;5.80;;;;;;;;;;6164739;28;20054;-86
2022/10/01 17:55:41;;;;;;;11.30;4.13;;;;;;;;;;6160060;28;20129;-85
2022/10/01 17:58:44;;;;;;;9.60;4.30;;;;;;;;;;6182270;28;20124;-87
2022/10/01 18:01:47;;;;;;;9.10;4.60;;;;;;;;;;6173503;28;20042;-86
2022/10/01 18:04:49;;;;;;;12.70;6.20;;;;;;;;;;6131093;28;20613;-87
2022/10/01 18:07:52;;;;;;;13.73;6.50;;;;;;;;;;6158848;28;20061;-87
2022/10/01 18:11:09;;;;;;;12.52;6.65;;;;;;;;;;6171238;28;20116;-86
2022/10/01 18:14:11;;;;;;;17.13;10.55;;;;;;;;;;6180999;28;20049;-86
2022/10/01 18:17:15;;;;;;;17.02;11.00;;;;;;;;;;6147422;28;20043;-87
2022/10/01 18:20:21;;;;;;;18.90;11.13;;;;;;;;;;6153289;28;20046;-87
2022/10/01 18:23:23;;;;;;;22.63;9.02;;;;;;;;;;6169713;28;20085;-87
2022/10/01 18:26:25;;;;;;;23.55;13.68;;;;;;;;;;6167756;28;20146;-86
2022/10/01 18:29:27;;;;;;;16.53;9.80;;;;;;;;;;6151422;28;20057;-86
2022/10/01 18:32:41;;;;;;;16.90;10.98;;;;;;;;;;6131315;28;20466;-85
2022/10/01 18:35:43;;;;;;;18.10;10.27;;;;;;;;;;6163586;28;20069;-85
2022/10/01 18:38:49;;;;;;;15.88;10.02;;;;;;;;;;6155565;28;20058;-85
2022/10/01 18:41:52;;;;;;;14.57;8.93;;;;;;;;;;6137128;28;20125;-85
2022/10/01 18:45:00;;;;;;;11.77;8.30;;;;;;;;;;6155668;28;20055;-85
2022/10/01 18:48:09;;;;;;;16.13;10.15;;;;;;;;;;6173256;28;20051;-84
2022/10/01 18:51:49;;;;;;;21.75;11.00;;;;;;;;;;6155515;28;20054;-85
2022/10/01 18:55:11;;;;;;;14.18;9.30;;;;;;;;;;6144468;28;20530;-86
2022/10/01 18:58:54;;;;;;;19.00;9.52;;;;;;;;;;6158458;28;20042;-86